Terminal Aerodrome Forecast
Issued by NWS

Home | Current Version | Previous Version | Text Only | Print | Product List | Glossary On
Versions: 1 2 3 4 5 6 7 8 9 10 11 12 13 14 15 16 17 18 19 20
000
FTUS43 KGRR 032300
TAFJXN
TAF
KJXN 032325Z 0400/0424 27014G24KT P6SM OVC015
     FM040400 27012KT P6SM OVC025
     FM041300 29012KT P6SM OVC035=

USA.gov is the U.S. government's official web portal to all federal, state and local government web resources and services.